Time;durP1;ratioP1;P1;durP2;ratioP2;P2;SDS_P1;SDS_P2;PMS_P1;PMS_P2;Temp;Humidity;BMP_temperature;BMP_pressure;BME280_temperature;BME280_humidity;BME280_pressure;Samples;Min_cycle;Max_cycle;Signal;HPM_P1;HPM_P2
2022/09/13 00:00:31;;;;;;;21.73;12.95;;;19.20;99.90;;;;;;4865617;29;20056;-72
2022/09/13 00:02:57;;;;;;;21.23;13.48;;;17.90;99.90;;;;;;4881795;29;20052;-73
2022/09/13 00:05:23;;;;;;;21.90;14.20;;;;;;;;;;4881875;29;20128;-73
2022/09/13 00:07:48;;;;;;;24.52;14.00;;;17.80;99.90;;;;;;4880431;29;20411;-73
2022/09/13 00:10:14;;;;;;;27.02;15.10;;;;;;;;;;4881409;29;20108;-73
2022/09/13 00:12:40;;;;;;;24.52;15.02;;;17.60;99.90;;;;;;4878848;29;20117;-72
2022/09/13 00:15:07;;;;;;;32.25;16.95;;;17.20;99.90;;;;;;4863165;29;20081;-73
2022/09/13 00:17:33;;;;;;;26.92;17.15;;;19.50;99.90;;;;;;4864079;29;20086;-73
2022/09/13 00:19:59;;;;;;;30.33;19.48;;;17.40;99.90;;;;;;4847691;29;20537;-73
2022/09/13 00:22:26;;;;;;;32.30;20.30;;;;;;;;;;4896369;29;20084;-73
2022/09/13 00:24:52;;;;;;;35.25;21.15;;;;;;;;;;4882310;29;20053;-72
2022/09/13 00:27:18;;;;;;;32.90;19.98;;;19.40;99.90;;;;;;4865836;29;20052;-73
2022/09/13 00:29:44;;;;;;;43.88;21.13;;;;;;;;;;4881120;29;20059;-73
2022/09/13 00:32:11;;;;;;;40.35;23.42;;;;;;;;;;4866309;29;20053;-73
2022/09/13 00:34:37;;;;;;;35.90;22.15;;;17.20;99.90;;;;;;4863142;29;20041;-73
2022/09/13 00:37:03;;;;;;;40.65;22.38;;;;;;;;;;4863588;29;20383;-73
2022/09/13 00:39:29;;;;;;;42.40;23.08;;;;;;;;;;4862974;29;20080;-73
2022/09/13 00:41:55;;;;;;;41.58;23.63;;;19.40;99.90;;;;;;4875299;29;20064;-72
2022/09/13 00:44:57;;;;;;;39.15;23.70;;;19.40;99.90;;;;;;4881358;29;20059;-71
2022/09/13 00:47:39;;;;;;;43.08;23.45;;;18.10;99.90;;;;;;4880948;29;20378;-73
2022/09/13 00:50:14;;;;;;;37.13;22.83;;;18.30;99.90;;;;;;4881475;29;20174;-73
2022/09/13 00:52:43;;;;;;;42.53;22.75;;;17.90;99.90;;;;;;4865169;29;20100;-73
2022/09/13 00:55:41;;;;;;;36.80;21.52;;;18.20;99.90;;;;;;4881172;29;20130;-73
2022/09/13 00:58:12;;;;;;;35.55;22.95;;;19.30;99.90;;;;;;4871353;29;20057;-72
2022/09/13 01:00:39;;;;;;;33.55;22.33;;;18.10;99.90;;;;;;4863034;29;20048;-72
2022/09/13 01:03:10;;;;;;;31.73;19.85;;;18.30;99.90;;;;;;4863038;29;20063;-73
2022/09/13 01:05:45;;;;;;;38.33;19.75;;;18.20;99.90;;;;;;4865150;29;20394;-73
2022/09/13 01:08:14;;;;;;;36.70;19.40;;;;;;;;;;4883938;29;20057;-73
2022/09/13 01:10:42;;;;;;;30.40;18.40;;;18.00;99.90;;;;;;4866492;29;20048;-73
2022/09/13 01:13:20;;;;;;;31.95;18.40;;;19.40;99.90;;;;;;4866368;29;20516;-73
2022/09/13 01:15:46;;;;;;;35.42;19.17;;;18.30;99.90;;;;;;4869779;29;20119;-72
2022/09/13 01:18:12;;;;;;;29.15;17.70;;;17.10;99.90;;;;;;4884067;29;20147;-72
2022/09/13 01:21:15;;;;;;;28.65;18.05;;;18.50;99.90;;;;;;4884495;29;20066;-72
2022/09/13 01:24:11;;;;;;;30.55;17.92;;;18.40;99.90;;;;;;4879038;29;20064;-73
2022/09/13 01:27:02;;;;;;;34.92;18.70;;;18.20;99.90;;;;;;4866280;29;20212;-73
2022/09/13 01:30:09;;;;;;;33.90;18.83;;;17.30;99.90;;;;;;4865870;29;20063;-73
2022/09/13 01:32:47;;;;;;;30.77;16.85;;;;;;;;;;4865869;29;20057;-73
2022/09/13 01:35:37;;;;;;;33.65;17.88;;;17.10;99.90;;;;;;4865810;29;20052;-73
2022/09/13 01:38:09;;;;;;;30.98;18.50;;;19.00;99.90;;;;;;4866780;29;20052;-73
2022/09/13 01:40:53;;;;;;;;;;;18.20;99.90;;;;;;4866312;29;20201;-73
2022/09/13 01:43:45;;;;;;;31.85;18.15;;;18.10;99.90;;;;;;4865605;29;19919;-72
2022/09/13 01:46:25;;;;;;;30.63;16.73;;;18.40;99.90;;;;;;4850463;29;20049;-73
2022/09/13 01:49:20;;;;;;;28.65;18.02;;;18.10;99.90;;;;;;4872756;29;20056;-72
2022/09/13 01:52:11;;;;;;;32.97;18.67;;;18.30;99.90;;;;;;4868802;29;20059;-73
2022/09/13 01:54:37;;;;;;;30.52;17.83;;;;;;;;;;4884174;29;20048;-72
2022/09/13 01:57:03;;;;;;;29.90;18.17;;;;;;;;;;4882577;29;20124;-73
2022/09/13 01:59:42;;;;;;;32.80;17.42;;;18.20;99.90;;;;;;4884138;29;20084;-73
2022/09/13 02:02:40;;;;;;;27.50;17.85;;;17.90;99.90;;;;;;4900715;29;20068;-72
2022/09/13 02:05:22;;;;;;;28.60;16.35;;;18.00;99.90;;;;;;4883954;29;20131;-72
2022/09/13 02:08:07;;;;;;;29.03;17.27;;;18.20;99.90;;;;;;4883799;29;20063;-72
2022/09/13 02:10:52;;;;;;;25.85;18.23;;;18.10;99.90;;;;;;4868328;29;20238;-73
2022/09/13 02:13:22;;;;;;;32.58;18.05;;;;;;;;;;4868671;29;20071;-73
2022/09/13 02:15:53;;;;;;;27.98;17.38;;;18.10;99.90;;;;;;4883340;29;20048;-73
2022/09/13 02:18:33;;;;;;;35.00;18.23;;;18.10;99.90;;;;;;4872038;29;20049;-73
2022/09/13 02:21:05;;;;;;;20.90;8.80;;;18.30;99.90;;;;;;4875067;29;20074;-73
2022/09/13 02:23:40;;;;;;;9.98;3.38;;;17.70;99.90;;;;;;4876231;29;20050;-73
2022/09/13 02:26:11;;;;;;;11.68;2.88;;;18.10;99.90;;;;;;4862084;29;20406;-73
2022/09/13 02:28:43;;;;;;;6.95;2.58;;;18.20;99.90;;;;;;4862802;29;20061;-73
2022/09/13 02:31:13;;;;;;;2.90;1.45;;;17.70;99.90;;;;;;4863286;29;20135;-73
2022/09/13 02:33:43;;;;;;;6.90;2.08;;;;;;;;;;4846522;29;20054;-72
2022/09/13 02:36:17;;;;;;;5.43;1.20;;;16.60;99.90;;;;;;4862116;29;20080;-72
2022/09/13 02:38:55;;;;;;;5.78;1.58;;;18.60;99.90;;;;;;4861649;29;20410;-72
2022/09/13 02:41:26;;;;;;;4.55;1.60;;;17.60;99.90;;;;;;4861686;29;20461;-73
2022/09/13 02:44:22;;;;;;;3.90;1.38;;;17.60;99.90;;;;;;4861631;29;20054;-73
2022/09/13 02:47:38;;;;;;;4.95;2.15;;;16.40;99.90;;;;;;4825113;29;20050;-73
2022/09/13 02:50:35;;;;;;;9.55;2.25;;;18.00;99.90;;;;;;4813387;29;20066;-73
2022/09/13 02:53:36;;;;;;;6.45;1.70;;;17.50;99.90;;;;;;4861478;29;20534;-73
2022/09/13 02:56:34;;;;;;;11.60;2.35;;;18.20;99.90;;;;;;4827035;29;20053;-73
2022/09/13 02:59:15;;;;;;;5.35;1.55;;;18.20;99.90;;;;;;4850194;29;20057;-73
2022/09/13 03:01:46;;;;;;;5.80;1.65;;;16.60;99.90;;;;;;4879869;29;20123;-73
2022/09/13 03:04:12;;;;;;;3.03;1.40;;;;;;;;;;4879726;29;20483;-73
2022/09/13 03:06:40;;;;;;;6.90;1.58;;;17.50;99.90;;;;;;4879090;29;20492;-73
2022/09/13 03:09:05;;;;;;;3.53;1.98;;;17.50;99.90;;;;;;4879094;29;20057;-73
2022/09/13 03:11:32;;;;;;;7.45;2.83;;;17.90;99.90;;;;;;4864135;29;20053;-73
2022/09/13 03:13:58;;;;;;;10.52;2.30;;;;;;;;;;4870870;29;20054;-73
2022/09/13 03:16:39;;;;;;;8.07;1.60;;;18.80;99.90;;;;;;4860829;29;20049;-73
2022/09/13 03:19:27;;;;;;;5.20;1.80;;;16.60;99.90;;;;;;4872690;29;20063;-73
2022/09/13 03:22:12;;;;;;;7.75;1.90;;;;;;;;;;4863752;29;20079;-73
2022/09/13 03:25:06;;;;;;;8.65;2.60;;;17.60;99.90;;;;;;4848816;29;20140;-73
2022/09/13 03:27:44;;;;;;;6.93;1.88;;;17.70;99.90;;;;;;4864069;29;20060;-73
2022/09/13 03:30:14;;;;;;;7.88;1.50;;;18.70;99.90;;;;;;4861698;29;20052;-73
2022/09/13 03:32:50;;;;;;;9.73;2.42;;;17.80;99.90;;;;;;4882549;29;20079;-73
2022/09/13 03:35:26;;;;;;;8.63;1.80;;;18.40;99.90;;;;;;4882241;29;20532;-73
2022/09/13 03:38:18;;;;;;;9.73;2.50;;;16.50;99.90;;;;;;4880871;29;20537;-73
2022/09/13 03:41:08;;;;;;;8.90;1.70;;;18.20;99.90;;;;;;4874749;29;20068;-73
2022/09/13 03:43:57;;;;;;;9.55;1.90;;;16.70;99.90;;;;;;4882368;29;20409;-73
2022/09/13 03:46:37;;;;;;;4.10;1.48;;;18.20;99.90;;;;;;4880616;29;20052;-73
2022/09/13 03:49:09;;;;;;;12.57;1.63;;;17.70;99.90;;;;;;4875206;29;20053;-73
2022/09/13 03:51:35;;;;;;;3.67;1.60;;;;;;;;;;4882022;29;20052;-73
2022/09/13 03:54:05;;;;;;;6.03;2.30;;;17.60;99.90;;;;;;4866600;29;20049;-73
2022/09/13 03:56:31;;;;;;;6.50;2.00;;;;;;;;;;4880453;29;20032;-73
2022/09/13 03:58:57;;;;;;;9.77;1.92;;;18.60;99.90;;;;;;4863816;29;20060;-73
2022/09/13 04:01:23;;;;;;;5.70;1.95;;;17.60;99.90;;;;;;4849160;29;20505;-73
2022/09/13 04:03:50;;;;;;;7.18;1.73;;;;;;;;;;4870528;29;20131;-73
2022/09/13 04:06:16;;;;;;;6.38;1.80;;;;;;;;;;4880256;29;20056;-73
2022/09/13 04:08:43;;;;;;;9.43;2.15;;;;;;;;;;4881753;29;20054;-73
2022/09/13 04:11:09;;;;;;;8.85;2.00;;;;;;;;;;4865903;29;20516;-73
2022/09/13 04:13:36;;;;;;;10.15;1.98;;;17.50;99.90;;;;;;4881970;29;20523;-73
2022/09/13 04:16:03;;;;;;;10.20;2.17;;;16.90;99.90;;;;;;4881310;29;20059;-72
2022/09/13 04:18:30;;;;;;;7.38;2.17;;;17.60;99.90;;;;;;4861374;29;20549;-73
2022/09/13 04:20:57;;;;;;;6.63;2.20;;;17.70;99.90;;;;;;4863222;29;20060;-73
2022/09/13 04:23:24;;;;;;;9.57;2.53;;;17.80;99.90;;;;;;4871198;29;20049;-73
2022/09/13 04:25:50;;;;;;;9.68;2.30;;;;;;;;;;4881703;29;20140;-73
2022/09/13 04:28:21;;;;;;;8.13;1.88;;;17.30;99.90;;;;;;4880170;29;20053;-73
2022/09/13 04:30:48;;;;;;;11.38;2.78;;;17.60;99.90;;;;;;4898394;29;20071;-73
2022/09/13 04:33:16;;;;;;;7.03;2.13;;;18.50;99.90;;;;;;4881043;29;20139;-73
2022/09/13 04:35:42;;;;;;;13.35;2.92;;;;;;;;;;4881788;29;20371;-73
2022/09/13 04:38:08;;;;;;;9.52;3.03;;;;;;;;;;4866218;29;20055;-73
2022/09/13 04:40:35;;;;;;;7.00;2.47;;;;;;;;;;4862831;29;20049;-73
2022/09/13 04:43:01;;;;;;;9.30;2.83;;;;;;;;;;4852044;29;20071;-72
2022/09/13 04:45:27;;;;;;;6.65;1.98;;;17.40;99.90;;;;;;4881442;29;20060;-73
2022/09/13 04:47:55;;;;;;;10.82;2.70;;;17.60;99.90;;;;;;4853145;29;20088;-73
2022/09/13 04:50:22;;;;;;;10.38;4.25;;;16.30;99.90;;;;;;4862864;29;20064;-73
2022/09/13 04:52:48;;;;;;;5.93;2.40;;;;;;;;;;4863056;29;20597;-73
2022/09/13 04:55:14;;;;;;;9.15;2.72;;;;;;;;;;4862841;29;20127;-73
2022/09/13 04:57:40;;;;;;;6.90;2.47;;;;;;;;;;4863761;29;20045;-73
2022/09/13 05:00:07;;;;;;;14.88;3.22;;;18.20;99.90;;;;;;4862894;29;20053;-73
2022/09/13 05:02:33;;;;;;;6.47;2.50;;;;;;;;;;4862550;29;20521;-72
2022/09/13 05:04:59;;;;;;;6.93;2.55;;;;;;;;;;4876549;29;20116;-73
2022/09/13 05:07:25;;;;;;;11.00;2.92;;;;;;;;;;4863779;29;20049;-73
2022/09/13 05:09:51;;;;;;;10.80;3.05;;;;;;;;;;4862524;29;20067;-73
2022/09/13 05:12:17;;;;;;;18.25;3.10;;;;;;;;;;4868942;29;20135;-72
2022/09/13 05:14:43;;;;;;;12.02;3.20;;;;;;;;;;4879483;29;20044;-73
2022/09/13 05:17:09;;;;;;;11.48;2.80;;;16.50;99.90;;;;;;4875884;29;20048;-73
2022/09/13 05:19:38;;;;;;;13.48;2.90;;;;;;;;;;4896074;29;20048;-73
2022/09/13 05:22:04;;;;;;;14.73;3.30;;;;;;;;;;4880967;29;20064;-73
2022/09/13 05:24:32;;;;;;;9.07;2.80;;;;;;;;;;4896855;29;20053;-72
2022/09/13 05:26:58;;;;;;;9.10;2.63;;;;;;;;;;4862644;29;20065;-72
2022/09/13 05:29:24;;;;;;;10.50;3.38;;;;;;;;;;4856457;29;20090;-72
2022/09/13 05:31:50;;;;;;;11.18;2.90;;;;;;;;;;4864945;29;20049;-72
2022/09/13 05:34:16;;;;;;;8.70;3.00;;;17.40;99.90;;;;;;4881062;29;20060;-73
2022/09/13 05:36:43;;;;;;;10.30;3.20;;;;;;;;;;4873083;29;20049;-71
2022/09/13 05:39:14;;;;;;;9.60;2.70;;;17.40;99.90;;;;;;4870677;29;20084;-71
2022/09/13 05:41:40;;;;;;;15.50;3.23;;;;;;;;;;4893415;29;20096;-71
2022/09/13 05:44:07;;;;;;;9.73;2.78;;;;;;;;;;4876569;29;20098;-71
2022/09/13 05:46:33;;;;;;;13.27;3.22;;;;;;;;;;4862928;29;20060;-71
2022/09/13 05:48:59;;;;;;;15.88;2.72;;;;;;;;;;4862104;29;20476;-71
2022/09/13 05:51:26;;;;;;;18.83;2.60;;;;;;;;;;4864365;29;20060;-71
2022/09/13 05:53:53;;;;;;;9.93;2.40;;;17.20;99.90;;;;;;4865724;29;20490;-71
2022/09/13 05:56:24;;;;;;;13.75;3.05;;;17.20;99.90;;;;;;4880315;29;20192;-71
2022/09/13 05:58:51;;;;;;;13.25;2.65;;;17.50;99.90;;;;;;4884106;29;20085;-71
2022/09/13 06:01:19;;;;;;;8.45;2.42;;;17.40;99.90;;;;;;4872429;29;20433;-71
2022/09/13 06:03:55;;;;;;;9.20;2.20;;;17.40;99.90;;;;;;4881158;29;20068;-71
2022/09/13 06:06:21;;;;;;;12.63;2.42;;;;;;;;;;4866089;29;20110;-70
2022/09/13 06:08:47;;;;;;;19.38;2.83;;;;;;;;;;4883259;29;20056;-70
2022/09/13 06:11:14;;;;;;;10.70;2.25;;;17.30;99.90;;;;;;4866156;29;20123;-70
2022/09/13 06:13:42;;;;;;;11.95;2.80;;;;;;;;;;4883867;29;20441;-71
2022/09/13 06:16:11;;;;;;;17.40;2.05;;;17.20;99.90;;;;;;4868289;29;20080;-70
2022/09/13 06:18:37;;;;;;;14.98;2.90;;;;;;;;;;4882746;29;20084;-71
2022/09/13 06:21:05;;;;;;;13.65;2.13;;;17.10;99.90;;;;;;4872174;29;20048;-71
2022/09/13 06:23:31;;;;;;;11.98;3.25;;;;;;;;;;4880738;29;20084;-70
2022/09/13 06:26:05;;;;;;;16.90;2.58;;;16.40;99.90;;;;;;4852544;29;20060;-71
2022/09/13 06:28:31;;;;;;;12.60;2.67;;;;;;;;;;4864762;29;20090;-70
2022/09/13 06:31:12;;;;;;;24.80;2.88;;;17.10;99.90;;;;;;4849746;29;20045;-70
2022/09/13 06:33:40;;;;;;;17.80;3.35;;;17.20;99.90;;;;;;4881336;29;20068;-70
2022/09/13 06:36:07;;;;;;;10.75;2.97;;;;;;;;;;4867804;29;20110;-70
2022/09/13 06:38:33;;;;;;;9.60;1.90;;;;;;;;;;4864803;29;20498;-70
2022/09/13 06:41:11;;;;;;;6.10;1.90;;;17.20;99.90;;;;;;4865029;29;20379;-70
2022/09/13 06:43:37;;;;;;;12.05;1.88;;;;;;;;;;4864953;29;20060;-71
2022/09/13 06:46:12;;;;;;;11.95;2.33;;;17.40;99.90;;;;;;4864573;29;20083;-71
2022/09/13 06:48:40;;;;;;;8.13;3.05;;;17.20;99.90;;;;;;4883204;29;20071;-70
2022/09/13 06:51:12;;;;;;;9.90;1.92;;;16.10;99.90;;;;;;4883155;29;20390;-71
2022/09/13 06:53:38;;;;;;;14.27;2.22;;;;;;;;;;4881513;29;20048;-70
2022/09/13 06:56:10;;;;;;;18.45;2.45;;;17.30;99.90;;;;;;4852028;29;20061;-71
2022/09/13 06:58:36;;;;;;;14.38;2.35;;;17.30;99.90;;;;;;4867896;29;20510;-70
2022/09/13 07:01:13;;;;;;;9.27;1.95;;;;;;;;;;4882792;29;20123;-71
2022/09/13 07:03:42;;;;;;;7.82;1.60;;;17.50;99.90;;;;;;4876590;29;20045;-70
2022/09/13 07:06:13;;;;;;;9.07;2.13;;;17.40;99.90;;;;;;4878719;29;20059;-70
2022/09/13 07:08:40;;;;;;;8.35;2.00;;;16.90;99.90;;;;;;4879481;29;20099;-71
2022/09/13 07:11:08;;;;;;;14.32;2.35;;;16.30;99.90;;;;;;4848676;29;20045;-71
2022/09/13 07:13:35;;;;;;;13.38;2.30;;;;;;;;;;4860718;29;20044;-70
2022/09/13 07:16:05;;;;;;;8.23;2.00;;;17.30;99.90;;;;;;4867455;29;20053;-71
2022/09/13 07:18:31;;;;;;;8.15;1.90;;;;;;;;;;4881733;29;20524;-70
2022/09/13 07:21:02;;;;;;;4.72;1.42;;;;;;;;;;4865069;29;20071;-71
2022/09/13 07:23:29;;;;;;;8.40;1.80;;;17.60;99.90;;;;;;4864867;29;20513;-71
2022/09/13 07:26:00;;;;;;;12.00;2.00;;;17.50;99.90;;;;;;4863787;29;20084;-71
2022/09/13 07:28:28;;;;;;;12.13;1.67;;;17.60;99.90;;;;;;4867143;29;20052;-70
2022/09/13 07:30:54;;;;;;;11.18;1.88;;;;;;;;;;4867071;29;20045;-70
2022/09/13 07:33:20;;;;;;;12.48;2.00;;;;;;;;;;4880957;29;20098;-70
2022/09/13 07:35:46;;;;;;;8.93;2.00;;;;;;;;;;4867100;29;20108;-70
2022/09/13 07:38:12;;;;;;;10.27;2.47;;;;;;;;;;4882007;29;20057;-69
2022/09/13 07:40:38;;;;;;;11.05;2.08;;;;;;;;;;4882188;29;20084;-70
2022/09/13 07:43:05;;;;;;;7.75;1.80;;;;;;;;;;4881006;29;20048;-70
2022/09/13 07:45:31;;;;;;;7.53;1.38;;;;;;;;;;4882558;29;20067;-69
2022/09/13 07:47:57;;;;;;;9.40;1.98;;;;;;;;;;4881986;29;20059;-69
2022/09/13 07:50:23;;;;;;;7.68;1.60;;;;;;;;;;4881722;29;20048;-70
2022/09/13 07:52:49;;;;;;;12.45;1.58;;;;;;;;;;4881682;29;20048;-69
2022/09/13 07:55:15;;;;;;;12.13;1.80;;;;;;;;;;4863364;29;20045;-70
2022/09/13 07:57:42;;;;;;;7.30;1.50;;;17.60;99.90;;;;;;4863577;29;20055;-70
2022/09/13 08:00:08;;;;;;;11.30;2.08;;;;;;;;;;4863311;29;20045;-70
2022/09/13 08:02:36;;;;;;;6.50;1.80;;;;;;;;;;4877578;29;20051;-69
2022/09/13 08:05:02;;;;;;;15.32;1.95;;;;;;;;;;4851787;29;20071;-70
2022/09/13 08:07:28;;;;;;;4.32;1.10;;;;;;;;;;4881277;29;20044;-70
2022/09/13 08:09:55;;;;;;;10.90;1.50;;;;;;;;;;4881668;29;20056;-70
2022/09/13 08:12:21;;;;;;;16.00;2.03;;;;;;;;;;4863394;29;20071;-70
2022/09/13 08:14:49;;;;;;;9.38;1.67;;;;;;;;;;4869182;29;20414;-70
2022/09/13 08:17:15;;;;;;;10.30;1.40;;;;;;;;;;4875398;29;20049;-70
2022/09/13 08:19:41;;;;;;;10.95;2.75;;;18.40;99.90;;;;;;4873113;29;20049;-70
2022/09/13 08:22:07;;;;;;;13.23;2.08;;;;;;;;;;4867827;29;20462;-70
2022/09/13 08:24:33;;;;;;;11.63;2.33;;;;;;;;;;4865940;29;20069;-70
2022/09/13 08:26:59;;;;;;;19.55;2.50;;;;;;;;;;4851452;29;20049;-70
2022/09/13 08:29:25;;;;;;;14.45;1.95;;;;;;;;;;4865816;29;20067;-70
2022/09/13 08:31:51;;;;;;;7.93;1.80;;;19.10;99.90;;;;;;4852242;29;20041;-71
2022/09/13 08:34:18;;;;;;;10.13;1.50;;;;;;;;;;4869403;29;20491;-70
2022/09/13 08:36:44;;;;;;;5.45;1.35;;;;;;;;;;4844872;29;20116;-70
2022/09/13 08:39:14;;;;;;;12.43;1.80;;;18.40;99.20;;;;;;4859671;29;20053;-71
2022/09/13 08:41:41;;;;;;;8.65;1.25;;;;;;;;;;4859534;29;20140;-71
2022/09/13 08:44:25;;;;;;;14.02;1.85;;;18.60;98.20;;;;;;4859920;29;20092;-71
2022/09/13 08:46:58;;;;;;;10.68;1.70;;;18.50;99.20;;;;;;4860484;29;20533;-71
2022/09/13 08:49:42;;;;;;;16.13;1.90;;;18.30;98.30;;;;;;4844197;29;20507;-71
2022/09/13 08:52:14;;;;;;;18.60;1.77;;;18.20;99.90;;;;;;4844535;29;20098;-71
2022/09/13 08:54:40;;;;;;;8.50;1.42;;;;;;;;;;4844587;29;20042;-71
2022/09/13 08:57:21;;;;;;;10.57;1.58;;;19.50;99.90;;;;;;4844144;29;20124;-69
2022/09/13 09:00:03;;;;;;;9.43;1.42;;;18.70;99.90;;;;;;4859619;29;20506;-71
2022/09/13 09:03:01;;;;;;;8.90;1.75;;;18.10;99.90;;;;;;4859700;29;20061;-71
2022/09/13 09:05:29;;;;;;;9.00;1.77;;;18.50;98.60;;;;;;4844316;29;20061;-71
2022/09/13 09:08:04;;;;;;;13.65;1.70;;;;;;;;;;4866739;29;20064;-70
2022/09/13 09:10:43;;;;;;;13.70;1.65;;;19.10;98.20;;;;;;4871085;29;20073;-70
2022/09/13 09:14:02;;;;;;;20.42;1.58;;;18.90;98.40;;;;;;4857336;29;20161;-70
2022/09/13 09:16:43;;;;;;;7.78;1.58;;;19.10;98.20;;;;;;4851387;29;20126;-70
2022/09/13 09:19:12;;;;;;;14.18;1.50;;;;;;;;;;4859164;29;20057;-70
2022/09/13 09:21:40;;;;;;;12.32;1.95;;;17.90;98.10;;;;;;4863719;29;20060;-70
2022/09/13 09:24:10;;;;;;;9.30;1.45;;;19.60;99.90;;;;;;4849643;29;20055;-69
2022/09/13 09:26:36;;;;;;;9.35;1.42;;;18.90;96.80;;;;;;4872230;29;20096;-70
2022/09/13 09:29:14;;;;;;;14.77;1.73;;;18.70;97.60;;;;;;4853480;29;20092;-70
2022/09/13 09:31:56;;;;;;;8.70;1.50;;;17.60;99.90;;;;;;4877947;29;20125;-70
2022/09/13 09:34:52;;;;;;;6.60;1.55;;;18.90;96.80;;;;;;4870738;29;20131;-70
2022/09/13 09:37:21;;;;;;;10.30;1.52;;;;;;;;;;4900162;29;20496;-70
2022/09/13 09:39:49;;;;;;;22.08;2.05;;;18.90;97.00;;;;;;4882249;29;20044;-70
2022/09/13 09:42:20;;;;;;;5.25;1.55;;;18.20;99.90;;;;;;4877785;29;20128;-70
2022/09/13 09:45:16;;;;;;;10.68;1.55;;;19.80;99.90;;;;;;4865666;29;20054;-70
2022/09/13 09:47:46;;;;;;;8.75;1.77;;;19.50;95.60;;;;;;4883575;29;20080;-70
2022/09/13 09:50:22;;;;;;;12.18;1.40;;;18.90;99.20;;;;;;4878582;29;20061;-70
2022/09/13 09:53:04;;;;;;;10.35;2.25;;;20.00;99.90;;;;;;4868855;29;20060;-70
2022/09/13 09:55:53;;;;;;;6.78;1.23;;;19.60;96.20;;;;;;4875897;29;20061;-70
2022/09/13 09:58:37;;;;;;;8.23;1.33;;;19.70;95.00;;;;;;4850247;29;20051;-70
2022/09/13 10:01:06;;;;;;;17.55;2.13;;;19.30;98.90;;;;;;4866899;29;20240;-70
2022/09/13 10:03:32;;;;;;;12.32;2.60;;;19.50;94.10;;;;;;4862273;29;20389;-70
2022/09/13 10:06:07;;;;;;;11.93;1.75;;;19.60;93.20;;;;;;4853436;29;20056;-70
2022/09/13 10:08:36;;;;;;;13.63;2.13;;;19.70;94.20;;;;;;4865320;29;20060;-70
2022/09/13 10:11:03;;;;;;;11.23;1.55;;;19.80;94.00;;;;;;4865533;29;20076;-70
2022/09/13 10:13:31;;;;;;;28.90;2.28;;;;;;;;;;4865324;29;20056;-70
2022/09/13 10:16:26;;;;;;;24.58;2.22;;;19.80;94.30;;;;;;4865298;29;20124;-70
2022/09/13 10:18:52;;;;;;;12.63;2.15;;;;;;;;;;4870202;29;20131;-70
2022/09/13 10:21:18;;;;;;;14.48;1.90;;;;;;;;;;4852882;29;20067;-70
2022/09/13 10:23:46;;;;;;;10.32;2.03;;;20.10;98.00;;;;;;4869164;29;20117;-70
2022/09/13 10:26:25;;;;;;;12.82;1.63;;;19.80;93.80;;;;;;4883116;29;20403;-70
2022/09/13 10:29:01;;;;;;;18.52;1.85;;;19.60;94.00;;;;;;4875804;29;20061;-70
2022/09/13 10:31:32;;;;;;;10.23;1.67;;;19.60;94.00;;;;;;4865924;29;20056;-74
2022/09/13 10:34:04;;;;;;;7.90;1.50;;;18.30;99.90;;;;;;4871236;29;20048;-70
2022/09/13 10:36:31;;;;;;;;;;;19.80;95.50;;;;;;4868069;29;20049;-70
2022/09/13 10:39:00;;;;;;;15.27;2.00;;;19.70;94.10;;;;;;4873501;29;19945;-71
2022/09/13 10:41:28;;;;;;;6.72;1.17;;;19.80;94.10;;;;;;4864768;29;20195;-70
2022/09/13 10:44:02;;;;;;;8.70;1.10;;;19.60;93.50;;;;;;4864746;29;20092;-71
2022/09/13 10:46:35;;;;;;;15.73;2.00;;;19.50;93.90;;;;;;4864905;29;20406;-70
2022/09/13 10:49:01;;;;;;;7.80;1.45;;;;;;;;;;4864462;29;20060;-71
2022/09/13 10:51:27;;;;;;;14.43;1.65;;;;;;;;;;4877343;29;20128;-71
2022/09/13 10:54:12;;;;;;;6.03;1.42;;;20.20;92.00;;;;;;4883339;29;20393;-70
2022/09/13 10:56:37;;;;;;;13.93;1.90;;;20.30;97.20;;;;;;4883358;29;20055;-70
2022/09/13 10:59:29;;;;;;;9.77;1.42;;;20.40;91.70;;;;;;4883004;29;20416;-70
2022/09/13 11:02:04;;;;;;;13.73;1.58;;;;;;;;;;4883227;29;20064;-70
2022/09/13 11:04:30;;;;;;;15.40;1.88;;;20.10;97.50;;;;;;4879893;29;20136;-71
2022/09/13 11:06:56;;;;;;;9.05;1.63;;;;;;;;;;4868391;29;20189;-70
2022/09/13 11:09:48;;;;;;;19.10;1.95;;;19.70;96.30;;;;;;4864551;29;20084;-70
2022/09/13 11:12:17;;;;;;;14.35;1.65;;;20.00;93.80;;;;;;4855842;29;20638;-70
2022/09/13 11:15:14;;;;;;;12.43;1.50;;;20.40;92.20;;;;;;4867923;29;20219;-70
2022/09/13 11:17:55;;;;;;;11.63;2.08;;;;;;;;;;4871027;29;20044;-70
2022/09/13 11:20:26;;;;;;;13.95;1.83;;;19.70;97.50;;;;;;4872887;29;20148;-70
2022/09/13 11:22:52;;;;;;;13.82;1.67;;;;;;;;;;4866562;29;20057;-70
2022/09/13 11:25:27;;;;;;;18.25;1.65;;;;;;;;;;4875714;29;20053;-70
2022/09/13 11:28:02;;;;;;;12.10;1.60;;;;;;;;;;4869011;29;20462;-70
2022/09/13 11:30:33;;;;;;;15.32;2.05;;;21.20;93.30;;;;;;4869365;29;20493;-70
2022/09/13 11:32:58;;;;;;;5.95;1.40;;;21.20;97.50;;;;;;4865281;29;20049;-70
2022/09/13 11:35:45;;;;;;;10.65;1.70;;;19.70;96.90;;;;;;4874549;29;20417;-71
2022/09/13 11:38:43;;;;;;;12.02;1.60;;;19.80;95.70;;;;;;4881998;29;20049;-71
2022/09/13 11:41:27;;;;;;;8.40;1.50;;;20.70;92.50;;;;;;4852016;29;20057;-70
2022/09/13 11:44:29;;;;;;;12.93;1.83;;;20.70;90.80;;;;;;4880184;29;20056;-71
2022/09/13 11:47:14;;;;;;;11.95;1.85;;;20.80;92.00;;;;;;4867205;29;20052;-71
2022/09/13 11:49:58;;;;;;;9.60;1.58;;;19.90;96.10;;;;;;4864270;29;20119;-71
2022/09/13 11:52:50;;;;;;;15.88;2.08;;;21.00;92.10;;;;;;4874710;29;20048;-71
2022/09/13 11:55:46;;;;;;;13.18;2.00;;;20.90;90.70;;;;;;4866825;29;20063;-71
2022/09/13 11:58:18;;;;;;;10.27;2.15;;;20.80;91.40;;;;;;4868625;29;20053;-70
2022/09/13 12:00:59;;;;;;;14.65;1.60;;;20.80;91.50;;;;;;4877055;29;20143;-71
2022/09/13 12:03:31;;;;;;;14.27;1.83;;;;;;;;;;4870998;29;20064;-70
2022/09/13 12:06:03;;;;;;;19.13;3.45;;;20.70;91.40;;;;;;4871685;29;20109;-70
2022/09/13 12:08:34;;;;;;;10.90;1.38;;;20.80;91.20;;;;;;4875117;29;20105;-70
2022/09/13 12:11:10;;;;;;;14.87;2.23;;;21.80;92.30;;;;;;4865501;29;20367;-70
2022/09/13 12:13:45;;;;;;;18.58;1.50;;;20.80;90.60;;;;;;4860266;29;20062;-70
2022/09/13 12:16:37;;;;;;;12.82;1.70;;;21.00;91.10;;;;;;4867911;29;20064;-70
2022/09/13 12:19:33;;;;;;;9.48;1.65;;;21.30;91.20;;;;;;4862956;29;20071;-70
2022/09/13 12:22:00;;;;;;;15.32;1.85;;;21.70;95.10;;;;;;4860984;29;20064;-71
2022/09/13 12:24:45;;;;;;;13.50;1.95;;;20.90;94.70;;;;;;4886414;29;20053;-71
2022/09/13 12:27:35;;;;;;;13.02;1.77;;;21.60;95.00;;;;;;4870057;29;20567;-71
2022/09/13 12:30:19;;;;;;;17.83;1.98;;;20.10;95.10;;;;;;4850281;29;20071;-71
2022/09/13 12:32:46;;;;;;;12.20;2.20;;;20.80;95.40;;;;;;4877260;29;20041;-70
2022/09/13 12:35:15;;;;;;;15.35;2.35;;;20.80;95.70;;;;;;4872361;29;20045;-70
2022/09/13 12:38:09;;;;;;;11.65;1.88;;;20.30;90.10;;;;;;4864899;29;20052;-71
2022/09/13 12:41:34;;;;;;;17.38;1.60;;;20.50;91.40;;;;;;4862897;29;20493;-70
2022/09/13 12:44:29;;;;;;;21.65;2.70;;;20.30;91.60;;;;;;4803735;29;20460;-70
2022/09/13 12:47:01;;;;;;;6.45;1.80;;;;;;;;;;4863850;29;20055;-70
2022/09/13 12:49:26;;;;;;;;;;;20.40;91.50;;;;;;4872863;29;20068;-71
2022/09/13 12:51:55;;;;;;;10.10;1.60;;;21.20;91.90;;;;;;4867540;29;19947;-71
2022/09/13 12:54:37;;;;;;;13.13;1.77;;;21.20;95.30;;;;;;4880274;29;20047;-70
2022/09/13 12:57:03;;;;;;;17.95;1.85;;;;;;;;;;4874451;29;20063;-70
2022/09/13 12:59:51;;;;;;;10.40;1.60;;;21.00;88.70;;;;;;4874362;29;20048;-70
2022/09/13 13:02:24;;;;;;;9.85;1.70;;;;;;;;;;4884269;29;20394;-70
2022/09/13 13:04:53;;;;;;;;;;;20.90;90.10;;;;;;4867840;29;20049;-71
2022/09/13 13:07:22;;;;;;;15.35;2.05;;;21.00;90.20;;;;;;4897146;29;20015;-71
2022/09/13 13:09:52;;;;;;;10.68;1.90;;;20.60;94.30;;;;;;4883122;29;20057;-71
2022/09/13 13:12:34;;;;;;;10.52;1.70;;;21.00;90.20;;;;;;4884903;29;20048;-71
2022/09/13 13:15:42;;;;;;;11.65;1.92;;;20.90;90.40;;;;;;4884765;29;20048;-71
2022/09/13 13:18:31;;;;;;;7.75;1.30;;;21.70;94.40;;;;;;4828981;29;20049;-71
2022/09/13 13:20:57;;;;;;;13.57;1.40;;;;;;;;;;4865919;29;20061;-71
2022/09/13 13:23:27;;;;;;;6.65;1.40;;;21.80;93.80;;;;;;4872087;29;20466;-71
2022/09/13 13:26:04;;;;;;;8.30;1.60;;;;;;;;;;4879991;29;20055;-71
2022/09/13 13:28:42;;;;;;;8.27;1.10;;;21.50;86.50;;;;;;4867485;29;20049;-71
2022/09/13 13:31:08;;;;;;;9.95;1.52;;;22.20;93.40;;;;;;4858700;29;20055;-71
2022/09/13 13:33:54;;;;;;;11.90;1.35;;;21.20;93.10;;;;;;4865361;29;20489;-71
2022/09/13 13:36:27;;;;;;;14.35;1.55;;;22.10;92.40;;;;;;4865768;29;20064;-71
2022/09/13 13:38:54;;;;;;;15.50;1.60;;;22.10;89.70;;;;;;4874993;29;20064;-71
2022/09/13 13:41:34;;;;;;;8.02;1.30;;;;;;;;;;4867141;29;20401;-71
2022/09/13 13:44:01;;;;;;;11.32;1.58;;;22.50;92.20;;;;;;4897549;29;20048;-71
2022/09/13 13:46:31;;;;;;;10.80;1.73;;;22.70;92.20;;;;;;4868588;29;20389;-71
2022/09/13 13:49:29;;;;;;;12.95;1.65;;;22.60;91.70;;;;;;4872165;29;20057;-71